sensor_id;sensor_type;location;lat;lon;timestamp;pressure;altitude;pressure_sealevel;temperature
15079;BMP180;6932;51.438;5.470;2023-07-16T00:01:44;100556.00;;;24.00
15079;BMP180;6932;51.438;5.470;2023-07-16T00:04:10;100564.00;;;24.00
15079;BMP180;6932;51.438;5.470;2023-07-16T00:06:35;100563.00;;;23.90
15079;BMP180;6932;51.438;5.470;2023-07-16T00:09:01;100566.00;;;23.90
15079;BMP180;6932;51.438;5.470;2023-07-16T00:11:27;100562.00;;;23.90
15079;BMP180;6932;51.438;5.470;2023-07-16T00:13:53;100564.00;;;23.80
15079;BMP180;6932;51.438;5.470;2023-07-16T00:16:19;100563.00;;;23.80
15079;BMP180;6932;51.438;5.470;2023-07-16T00:18:45;100566.00;;;23.80
15079;BMP180;6932;51.438;5.470;2023-07-16T00:21:11;100563.00;;;23.80
15079;BMP180;6932;51.438;5.470;2023-07-16T00:23:36;100565.00;;;23.70
15079;BMP180;6932;51.438;5.470;2023-07-16T00:26:03;100570.00;;;23.70
15079;BMP180;6932;51.438;5.470;2023-07-16T00:28:29;100566.00;;;23.70
15079;BMP180;6932;51.438;5.470;2023-07-16T00:30:55;100570.00;;;23.60
15079;BMP180;6932;51.438;5.470;2023-07-16T00:33:21;100565.00;;;23.60
15079;BMP180;6932;51.438;5.470;2023-07-16T00:35:50;100566.00;;;23.60
15079;BMP180;6932;51.438;5.470;2023-07-16T00:38:20;100561.00;;;23.50
15079;BMP180;6932;51.438;5.470;2023-07-16T00:40:48;100570.00;;;23.50
15079;BMP180;6932;51.438;5.470;2023-07-16T00:43:15;100579.00;;;23.50
15079;BMP180;6932;51.438;5.470;2023-07-16T00:45:42;100572.00;;;23.50
15079;BMP180;6932;51.438;5.470;2023-07-16T00:48:11;100583.00;;;23.50
15079;BMP180;6932;51.438;5.470;2023-07-16T00:50:39;100569.00;;;23.50
15079;BMP180;6932;51.438;5.470;2023-07-16T00:53:07;100566.00;;;23.50
15079;BMP180;6932;51.438;5.470;2023-07-16T00:55:36;100567.00;;;23.50
15079;BMP180;6932;51.438;5.470;2023-07-16T00:58:05;100572.00;;;23.50
15079;BMP180;6932;51.438;5.470;2023-07-16T01:00:33;100572.00;;;23.50
15079;BMP180;6932;51.438;5.470;2023-07-16T01:03:01;100569.00;;;23.50
15079;BMP180;6932;51.438;5.470;2023-07-16T01:05:41;100565.00;;;23.50
15079;BMP180;6932;51.438;5.470;2023-07-16T01:08:12;100577.00;;;23.50
15079;BMP180;6932;51.438;5.470;2023-07-16T01:10:40;100560.00;;;23.50
15079;BMP180;6932;51.438;5.470;2023-07-16T01:13:07;100566.00;;;23.50
15079;BMP180;6932;51.438;5.470;2023-07-16T01:15:33;100576.00;;;23.50
15079;BMP180;6932;51.438;5.470;2023-07-16T01:17:58;100573.00;;;23.50
15079;BMP180;6932;51.438;5.470;2023-07-16T01:20:24;100573.00;;;23.50
15079;BMP180;6932;51.438;5.470;2023-07-16T01:28:53;100569.00;;;23.40
15079;BMP180;6932;51.438;5.470;2023-07-16T01:31:20;100549.00;;;23.40
15079;BMP180;6932;51.438;5.470;2023-07-16T01:33:50;100556.00;;;23.40
15079;BMP180;6932;51.438;5.470;2023-07-16T01:36:19;100556.00;;;23.40
15079;BMP180;6932;51.438;5.470;2023-07-16T01:38:46;100558.00;;;23.40
15079;BMP180;6932;51.438;5.470;2023-07-16T01:41:11;100560.00;;;23.30
15079;BMP180;6932;51.438;5.470;2023-07-16T01:43:37;100564.00;;;23.30
15079;BMP180;6932;51.438;5.470;2023-07-16T01:46:03;100561.00;;;23.30
15079;BMP180;6932;51.438;5.470;2023-07-16T01:48:37;100569.00;;;23.30
15079;BMP180;6932;51.438;5.470;2023-07-16T01:51:03;100576.00;;;23.20
15079;BMP180;6932;51.438;5.470;2023-07-16T01:53:30;100573.00;;;23.20
15079;BMP180;6932;51.438;5.470;2023-07-16T01:55:57;100579.00;;;23.20
15079;BMP180;6932;51.438;5.470;2023-07-16T01:58:23;100569.00;;;23.20
15079;BMP180;6932;51.438;5.470;2023-07-16T02:00:52;100569.00;;;23.20
15079;BMP180;6932;51.438;5.470;2023-07-16T02:03:18;100567.00;;;23.20
15079;BMP180;6932;51.438;5.470;2023-07-16T02:05:43;100562.00;;;23.10
15079;BMP180;6932;51.438;5.470;2023-07-16T02:08:09;100571.00;;;23.10
15079;BMP180;6932;51.438;5.470;2023-07-16T02:10:35;100572.00;;;23.10
15079;BMP180;6932;51.438;5.470;2023-07-16T02:13:01;100571.00;;;23.10
15079;BMP180;6932;51.438;5.470;2023-07-16T02:15:27;100573.00;;;23.10
15079;BMP180;6932;51.438;5.470;2023-07-16T02:17:52;100574.00;;;23.00
15079;BMP180;6932;51.438;5.470;2023-07-16T02:20:18;100573.00;;;23.00
15079;BMP180;6932;51.438;5.470;2023-07-16T02:22:44;100570.00;;;23.00
15079;BMP180;6932;51.438;5.470;2023-07-16T02:25:09;100578.00;;;23.00
15079;BMP180;6932;51.438;5.470;2023-07-16T02:27:35;100574.00;;;22.90
15079;BMP180;6932;51.438;5.470;2023-07-16T02:30:01;100575.00;;;22.90
15079;BMP180;6932;51.438;5.470;2023-07-16T02:32:27;100581.00;;;22.90
15079;BMP180;6932;51.438;5.470;2023-07-16T02:34:53;100588.00;;;22.90
15079;BMP180;6932;51.438;5.470;2023-07-16T02:37:18;100594.00;;;22.90
15079;BMP180;6932;51.438;5.470;2023-07-16T02:39:45;100578.00;;;22.90
15079;BMP180;6932;51.438;5.470;2023-07-16T02:42:13;100586.00;;;22.90
15079;BMP180;6932;51.438;5.470;2023-07-16T02:44:38;100589.00;;;22.90
15079;BMP180;6932;51.438;5.470;2023-07-16T02:47:09;100596.00;;;22.80
15079;BMP180;6932;51.438;5.470;2023-07-16T02:49:34;100599.00;;;22.80
15079;BMP180;6932;51.438;5.470;2023-07-16T02:52:00;100587.00;;;22.80
15079;BMP180;6932;51.438;5.470;2023-07-16T02:54:26;100594.00;;;22.80
15079;BMP180;6932;51.438;5.470;2023-07-16T02:56:51;100600.00;;;22.80
15079;BMP180;6932;51.438;5.470;2023-07-16T02:59:17;100600.00;;;22.80
15079;BMP180;6932;51.438;5.470;2023-07-16T03:01:43;100592.00;;;22.80
15079;BMP180;6932;51.438;5.470;2023-07-16T03:04:09;100609.00;;;22.80
15079;BMP180;6932;51.438;5.470;2023-07-16T03:06:34;100611.00;;;22.80
15079;BMP180;6932;51.438;5.470;2023-07-16T03:09:00;100612.00;;;22.80
15079;BMP180;6932;51.438;5.470;2023-07-16T03:11:26;100615.00;;;22.80
15079;BMP180;6932;51.438;5.470;2023-07-16T03:13:52;100619.00;;;22.80
15079;BMP180;6932;51.438;5.470;2023-07-16T03:16:18;100601.00;;;22.80
15079;BMP180;6932;51.438;5.470;2023-07-16T03:18:44;100615.00;;;22.70
15079;BMP180;6932;51.438;5.470;2023-07-16T03:21:11;100616.00;;;22.70
15079;BMP180;6932;51.438;5.470;2023-07-16T03:23:37;100618.00;;;22.70
15079;BMP180;6932;51.438;5.470;2023-07-16T03:26:03;100619.00;;;22.70
15079;BMP180;6932;51.438;5.470;2023-07-16T03:28:29;100627.00;;;22.70
15079;BMP180;6932;51.438;5.470;2023-07-16T03:30:54;100618.00;;;22.70
15079;BMP180;6932;51.438;5.470;2023-07-16T03:33:20;100626.00;;;22.70
15079;BMP180;6932;51.438;5.470;2023-07-16T03:35:48;100615.00;;;22.60
15079;BMP180;6932;51.438;5.470;2023-07-16T03:38:14;100620.00;;;22.60
15079;BMP180;6932;51.438;5.470;2023-07-16T03:40:47;100621.00;;;22.60
15079;BMP180;6932;51.438;5.470;2023-07-16T03:43:13;100624.00;;;22.50
15079;BMP180;6932;51.438;5.470;2023-07-16T03:45:39;100622.00;;;22.50
15079;BMP180;6932;51.438;5.470;2023-07-16T03:48:05;100621.00;;;22.50
15079;BMP180;6932;51.438;5.470;2023-07-16T03:50:31;100631.00;;;22.50
15079;BMP180;6932;51.438;5.470;2023-07-16T03:52:57;100629.00;;;22.50
15079;BMP180;6932;51.438;5.470;2023-07-16T03:55:23;100633.00;;;22.50
15079;BMP180;6932;51.438;5.470;2023-07-16T03:57:48;100638.00;;;22.50
15079;BMP180;6932;51.438;5.470;2023-07-16T04:00:14;100644.00;;;22.50
15079;BMP180;6932;51.438;5.470;2023-07-16T04:02:40;100652.00;;;22.50
15079;BMP180;6932;51.438;5.470;2023-07-16T04:05:07;100655.00;;;22.50
15079;BMP180;6932;51.438;5.470;2023-07-16T04:07:33;100658.00;;;22.50
15079;BMP180;6932;51.438;5.470;2023-07-16T04:09:58;100655.00;;;22.40
15079;BMP180;6932;51.438;5.470;2023-07-16T04:12:24;100675.00;;;22.50
15079;BMP180;6932;51.438;5.470;2023-07-16T04:14:57;100680.00;;;22.50
15079;BMP180;6932;51.438;5.470;2023-07-16T04:17:23;100679.00;;;22.50
15079;BMP180;6932;51.438;5.470;2023-07-16T04:19:49;100679.00;;;22.50
15079;BMP180;6932;51.438;5.470;2023-07-16T04:22:14;100677.00;;;22.50
15079;BMP180;6932;51.438;5.470;2023-07-16T04:24:40;100685.00;;;22.50
15079;BMP180;6932;51.438;5.470;2023-07-16T04:27:06;100676.00;;;22.50
15079;BMP180;6932;51.438;5.470;2023-07-16T04:29:32;100688.00;;;22.60
15079;BMP180;6932;51.438;5.470;2023-07-16T04:31:58;100694.00;;;22.60
15079;BMP180;6932;51.438;5.470;2023-07-16T04:34:24;100688.00;;;22.60
15079;BMP180;6932;51.438;5.470;2023-07-16T04:36:49;100704.00;;;22.70
15079;BMP180;6932;51.438;5.470;2023-07-16T04:39:15;100693.00;;;22.70
15079;BMP180;6932;51.438;5.470;2023-07-16T04:41:41;100706.00;;;22.80
15079;BMP180;6932;51.438;5.470;2023-07-16T04:44:07;100701.00;;;22.80
15079;BMP180;6932;51.438;5.470;2023-07-16T04:46:33;100705.00;;;22.80
15079;BMP180;6932;51.438;5.470;2023-07-16T04:48:59;100706.00;;;22.90
15079;BMP180;6932;51.438;5.470;2023-07-16T04:51:25;100714.00;;;23.00
15079;BMP180;6932;51.438;5.470;2023-07-16T04:53:51;100712.00;;;23.00
15079;BMP180;6932;51.438;5.470;2023-07-16T04:56:17;100721.00;;;23.10
15079;BMP180;6932;51.438;5.470;2023-07-16T04:58:42;100718.00;;;23.10
15079;BMP180;6932;51.438;5.470;2023-07-16T05:01:09;100712.00;;;23.20
15079;BMP180;6932;51.438;5.470;2023-07-16T05:03:36;100718.00;;;23.20
15079;BMP180;6932;51.438;5.470;2023-07-16T05:06:02;100712.00;;;23.20
15079;BMP180;6932;51.438;5.470;2023-07-16T05:08:28;100717.00;;;23.30
15079;BMP180;6932;51.438;5.470;2023-07-16T05:10:54;100706.00;;;23.40
15079;BMP180;6932;51.438;5.470;2023-07-16T05:13:20;100718.00;;;23.40
15079;BMP180;6932;51.438;5.470;2023-07-16T05:15:47;100721.00;;;23.50
15079;BMP180;6932;51.438;5.470;2023-07-16T05:18:12;100719.00;;;23.60
15079;BMP180;6932;51.438;5.470;2023-07-16T05:20:38;100728.00;;;23.70
15079;BMP180;6932;51.438;5.470;2023-07-16T05:23:04;100718.00;;;23.70
15079;BMP180;6932;51.438;5.470;2023-07-16T05:25:30;100724.00;;;23.80
15079;BMP180;6932;51.438;5.470;2023-07-16T05:27:56;100728.00;;;23.90
15079;BMP180;6932;51.438;5.470;2023-07-16T05:30:22;100731.00;;;23.90
15079;BMP180;6932;51.438;5.470;2023-07-16T05:32:48;100735.00;;;24.00
15079;BMP180;6932;51.438;5.470;2023-07-16T05:35:14;100731.00;;;24.00
15079;BMP180;6932;51.438;5.470;2023-07-16T05:37:39;100744.00;;;24.10
15079;BMP180;6932;51.438;5.470;2023-07-16T05:40:06;100734.00;;;24.20
15079;BMP180;6932;51.438;5.470;2023-07-16T05:42:34;100733.00;;;24.30
15079;BMP180;6932;51.438;5.470;2023-07-16T05:45:00;100741.00;;;24.30
15079;BMP180;6932;51.438;5.470;2023-07-16T05:47:26;100755.00;;;24.40
15079;BMP180;6932;51.438;5.470;2023-07-16T05:49:52;100748.00;;;24.40
15079;BMP180;6932;51.438;5.470;2023-07-16T05:52:17;100752.00;;;24.50
15079;BMP180;6932;51.438;5.470;2023-07-16T05:54:44;100742.00;;;24.60
15079;BMP180;6932;51.438;5.470;2023-07-16T05:57:11;100741.00;;;24.60
15079;BMP180;6932;51.438;5.470;2023-07-16T05:59:36;100750.00;;;24.70
15079;BMP180;6932;51.438;5.470;2023-07-16T06:02:04;100747.00;;;24.80
15079;BMP180;6932;51.438;5.470;2023-07-16T06:04:30;100762.00;;;24.90
15079;BMP180;6932;51.438;5.470;2023-07-16T06:06:57;100768.00;;;25.00
15079;BMP180;6932;51.438;5.470;2023-07-16T06:09:23;100770.00;;;25.10
15079;BMP180;6932;51.438;5.470;2023-07-16T06:11:49;100764.00;;;25.20
15079;BMP180;6932;51.438;5.470;2023-07-16T06:14:15;100771.00;;;25.20
15079;BMP180;6932;51.438;5.470;2023-07-16T06:16:42;100765.00;;;25.30
15079;BMP180;6932;51.438;5.470;2023-07-16T06:19:08;100789.00;;;25.40
15079;BMP180;6932;51.438;5.470;2023-07-16T06:21:34;100782.00;;;25.40
15079;BMP180;6932;51.438;5.470;2023-07-16T06:24:00;100793.00;;;25.50
15079;BMP180;6932;51.438;5.470;2023-07-16T06:26:26;100778.00;;;25.60
15079;BMP180;6932;51.438;5.470;2023-07-16T06:28:51;100793.00;;;25.60
15079;BMP180;6932;51.438;5.470;2023-07-16T06:31:18;100797.00;;;25.70
15079;BMP180;6932;51.438;5.470;2023-07-16T06:33:43;100785.00;;;25.80
15079;BMP180;6932;51.438;5.470;2023-07-16T06:36:12;100789.00;;;25.80
15079;BMP180;6932;51.438;5.470;2023-07-16T06:38:38;100781.00;;;25.90
15079;BMP180;6932;51.438;5.470;2023-07-16T06:41:04;100795.00;;;25.90
15079;BMP180;6932;51.438;5.470;2023-07-16T06:43:30;100784.00;;;26.00
15079;BMP180;6932;51.438;5.470;2023-07-16T06:45:56;100808.00;;;26.00
15079;BMP180;6932;51.438;5.470;2023-07-16T06:48:22;100808.00;;;26.10
15079;BMP180;6932;51.438;5.470;2023-07-16T06:50:49;100804.00;;;26.10
15079;BMP180;6932;51.438;5.470;2023-07-16T06:53:15;100803.00;;;26.20
15079;BMP180;6932;51.438;5.470;2023-07-16T06:55:41;100812.00;;;26.20
15079;BMP180;6932;51.438;5.470;2023-07-16T06:58:11;100802.00;;;26.30
15079;BMP180;6932;51.438;5.470;2023-07-16T07:00:37;100803.00;;;26.30
15079;BMP180;6932;51.438;5.470;2023-07-16T07:03:03;100800.00;;;26.40
15079;BMP180;6932;51.438;5.470;2023-07-16T07:05:28;100801.00;;;26.40
15079;BMP180;6932;51.438;5.470;2023-07-16T07:07:54;100818.00;;;26.50
15079;BMP180;6932;51.438;5.470;2023-07-16T07:10:20;100819.00;;;26.50
15079;BMP180;6932;51.438;5.470;2023-07-16T07:12:46;100815.00;;;26.60
15079;BMP180;6932;51.438;5.470;2023-07-16T07:15:12;100802.00;;;26.60
15079;BMP180;6932;51.438;5.470;2023-07-16T07:17:38;100820.00;;;26.70
15079;BMP180;6932;51.438;5.470;2023-07-16T07:20:05;100810.00;;;26.80
15079;BMP180;6932;51.438;5.470;2023-07-16T07:22:31;100818.00;;;26.80
15079;BMP180;6932;51.438;5.470;2023-07-16T07:24:58;100829.00;;;26.80
15079;BMP180;6932;51.438;5.470;2023-07-16T07:27:23;100815.00;;;26.90
15079;BMP180;6932;51.438;5.470;2023-07-16T07:29:49;100829.00;;;26.90
15079;BMP180;6932;51.438;5.470;2023-07-16T07:32:21;100822.00;;;27.00
15079;BMP180;6932;51.438;5.470;2023-07-16T07:34:48;100827.00;;;27.00
15079;BMP180;6932;51.438;5.470;2023-07-16T07:37:13;100830.00;;;27.10
15079;BMP180;6932;51.438;5.470;2023-07-16T07:39:39;100831.00;;;27.10
15079;BMP180;6932;51.438;5.470;2023-07-16T07:42:06;100852.00;;;27.10
15079;BMP180;6932;51.438;5.470;2023-07-16T07:44:32;100837.00;;;27.20
15079;BMP180;6932;51.438;5.470;2023-07-16T07:46:58;100850.00;;;27.20
15079;BMP180;6932;51.438;5.470;2023-07-16T07:49:23;100853.00;;;27.20
15079;BMP180;6932;51.438;5.470;2023-07-16T07:51:49;100861.00;;;27.30
15079;BMP180;6932;51.438;5.470;2023-07-16T07:54:15;100862.00;;;27.20
15079;BMP180;6932;51.438;5.470;2023-07-16T07:56:42;100861.00;;;27.20
15079;BMP180;6932;51.438;5.470;2023-07-16T07:59:08;100853.00;;;27.10
15079;BMP180;6932;51.438;5.470;2023-07-16T08:01:33;100850.00;;;27.00
15079;BMP180;6932;51.438;5.470;2023-07-16T08:03:59;100854.00;;;27.00
15079;BMP180;6932;51.438;5.470;2023-07-16T08:06:25;100863.00;;;27.00
15079;BMP180;6932;51.438;5.470;2023-07-16T08:08:52;100851.00;;;27.00
15079;BMP180;6932;51.438;5.470;2023-07-16T08:11:17;100857.00;;;27.10
15079;BMP180;6932;51.438;5.470;2023-07-16T08:13:43;100858.00;;;27.30
15079;BMP180;6932;51.438;5.470;2023-07-16T08:16:09;100861.00;;;27.40
15079;BMP180;6932;51.438;5.470;2023-07-16T08:18:35;100868.00;;;27.50
15079;BMP180;6932;51.438;5.470;2023-07-16T08:21:01;100864.00;;;27.60
15079;BMP180;6932;51.438;5.470;2023-07-16T08:23:26;100866.00;;;27.70
15079;BMP180;6932;51.438;5.470;2023-07-16T08:25:52;100846.00;;;27.80
15079;BMP180;6932;51.438;5.470;2023-07-16T08:28:18;100850.00;;;27.80
15079;BMP180;6932;51.438;5.470;2023-07-16T08:30:47;100855.00;;;27.90
15079;BMP180;6932;51.438;5.470;2023-07-16T08:33:14;100855.00;;;28.00
15079;BMP180;6932;51.438;5.470;2023-07-16T08:35:41;100854.00;;;28.10
15079;BMP180;6932;51.438;5.470;2023-07-16T08:38:07;100864.00;;;28.20
15079;BMP180;6932;51.438;5.470;2023-07-16T08:40:37;100858.00;;;28.30
15079;BMP180;6932;51.438;5.470;2023-07-16T08:43:05;100869.00;;;28.30
15079;BMP180;6932;51.438;5.470;2023-07-16T08:45:38;100858.00;;;28.40
15079;BMP180;6932;51.438;5.470;2023-07-16T08:48:07;100866.00;;;28.40
15079;BMP180;6932;51.438;5.470;2023-07-16T08:50:35;100872.00;;;28.30
15079;BMP180;6932;51.438;5.470;2023-07-16T08:53:05;100865.00;;;28.20
15079;BMP180;6932;51.438;5.470;2023-07-16T08:55:31;100867.00;;;28.10
15079;BMP180;6932;51.438;5.470;2023-07-16T08:57:58;100869.00;;;28.00
15079;BMP180;6932;51.438;5.470;2023-07-16T09:00:26;100884.00;;;27.90
15079;BMP180;6932;51.438;5.470;2023-07-16T09:02:53;100882.00;;;27.90
15079;BMP180;6932;51.438;5.470;2023-07-16T09:05:22;100886.00;;;27.90
15079;BMP180;6932;51.438;5.470;2023-07-16T09:07:49;100886.00;;;27.90
15079;BMP180;6932;51.438;5.470;2023-07-16T09:10:16;100877.00;;;27.90
15079;BMP180;6932;51.438;5.470;2023-07-16T09:12:46;100885.00;;;28.00
15079;BMP180;6932;51.438;5.470;2023-07-16T09:15:16;100885.00;;;28.10
15079;BMP180;6932;51.438;5.470;2023-07-16T09:17:42;100896.00;;;28.20
15079;BMP180;6932;51.438;5.470;2023-07-16T09:20:08;100883.00;;;28.20
15079;BMP180;6932;51.438;5.470;2023-07-16T09:22:34;100880.00;;;28.30
15079;BMP180;6932;51.438;5.470;2023-07-16T09:25:01;100881.00;;;28.30
15079;BMP180;6932;51.438;5.470;2023-07-16T09:27:31;100890.00;;;28.40
15079;BMP180;6932;51.438;5.470;2023-07-16T09:29:57;100898.00;;;28.50
15079;BMP180;6932;51.438;5.470;2023-07-16T09:32:38;100893.00;;;28.60
15079;BMP180;6932;51.438;5.470;2023-07-16T09:35:12;100892.00;;;28.60
15079;BMP180;6932;51.438;5.470;2023-07-16T09:37:38;100891.00;;;28.60
15079;BMP180;6932;51.438;5.470;2023-07-16T09:40:07;100906.00;;;28.60
15079;BMP180;6932;51.438;5.470;2023-07-16T09:42:43;100902.00;;;28.60
15079;BMP180;6932;51.438;5.470;2023-07-16T09:45:18;100915.00;;;28.50
15079;BMP180;6932;51.438;5.470;2023-07-16T09:47:44;100913.00;;;28.40
15079;BMP180;6932;51.438;5.470;2023-07-16T09:50:11;100925.00;;;28.40
15079;BMP180;6932;51.438;5.470;2023-07-16T09:52:37;100925.00;;;28.40
15079;BMP180;6932;51.438;5.470;2023-07-16T09:55:08;100913.00;;;28.30
15079;BMP180;6932;51.438;5.470;2023-07-16T09:57:39;100913.00;;;28.30
15079;BMP180;6932;51.438;5.470;2023-07-16T10:00:09;100916.00;;;28.20
15079;BMP180;6932;51.438;5.470;2023-07-16T10:02:40;100932.00;;;28.20
15079;BMP180;6932;51.438;5.470;2023-07-16T10:05:17;100932.00;;;28.10
15079;BMP180;6932;51.438;5.470;2023-07-16T10:07:50;100928.00;;;28.10
15079;BMP180;6932;51.438;5.470;2023-07-16T10:10:16;100940.00;;;28.00
15079;BMP180;6932;51.438;5.470;2023-07-16T10:12:55;100936.00;;;27.90
15079;BMP180;6932;51.438;5.470;2023-07-16T10:15:27;100940.00;;;27.90
15079;BMP180;6932;51.438;5.470;2023-07-16T10:17:53;100947.00;;;27.80
15079;BMP180;6932;51.438;5.470;2023-07-16T10:20:37;100954.00;;;27.70
15079;BMP180;6932;51.438;5.470;2023-07-16T10:23:14;100956.00;;;27.70
15079;BMP180;6932;51.438;5.470;2023-07-16T10:25:57;100951.00;;;27.60
15079;BMP180;6932;51.438;5.470;2023-07-16T10:28:23;100961.00;;;27.50
15079;BMP180;6932;51.438;5.470;2023-07-16T10:30:50;100967.00;;;27.50
15079;BMP180;6932;51.438;5.470;2023-07-16T10:33:16;100967.00;;;27.50
15079;BMP180;6932;51.438;5.470;2023-07-16T10:35:42;100968.00;;;27.50
15079;BMP180;6932;51.438;5.470;2023-07-16T10:38:08;100975.00;;;27.40
15079;BMP180;6932;51.438;5.470;2023-07-16T10:40:44;100976.00;;;27.40
15079;BMP180;6932;51.438;5.470;2023-07-16T10:43:11;100971.00;;;27.40
15079;BMP180;6932;51.438;5.470;2023-07-16T10:45:37;100971.00;;;27.40
15079;BMP180;6932;51.438;5.470;2023-07-16T10:48:03;100968.00;;;27.30
15079;BMP180;6932;51.438;5.470;2023-07-16T10:50:33;100967.00;;;27.30
15079;BMP180;6932;51.438;5.470;2023-07-16T10:52:59;100977.00;;;27.30
15079;BMP180;6932;51.438;5.470;2023-07-16T10:55:28;100980.00;;;27.30
15079;BMP180;6932;51.438;5.470;2023-07-16T10:57:56;100985.00;;;27.30
15079;BMP180;6932;51.438;5.470;2023-07-16T11:00:23;100979.00;;;27.20
15079;BMP180;6932;51.438;5.470;2023-07-16T11:02:51;100994.00;;;27.30
15079;BMP180;6932;51.438;5.470;2023-07-16T11:05:18;100981.00;;;27.30
15079;BMP180;6932;51.438;5.470;2023-07-16T11:07:49;100990.00;;;27.20
15079;BMP180;6932;51.438;5.470;2023-07-16T11:10:18;100982.00;;;27.20
15079;BMP180;6932;51.438;5.470;2023-07-16T11:12:44;100987.00;;;27.20
15079;BMP180;6932;51.438;5.470;2023-07-16T11:15:10;101004.00;;;27.20
15079;BMP180;6932;51.438;5.470;2023-07-16T11:17:40;100999.00;;;27.20
15079;BMP180;6932;51.438;5.470;2023-07-16T11:20:09;100998.00;;;27.10
15079;BMP180;6932;51.438;5.470;2023-07-16T11:22:38;101002.00;;;27.10
15079;BMP180;6932;51.438;5.470;2023-07-16T11:25:11;101007.00;;;27.00
15079;BMP180;6932;51.438;5.470;2023-07-16T11:27:40;101015.00;;;27.00
15079;BMP180;6932;51.438;5.470;2023-07-16T11:30:07;101011.00;;;27.00
15079;BMP180;6932;51.438;5.470;2023-07-16T11:35:06;101013.00;;;26.90
15079;BMP180;6932;51.438;5.470;2023-07-16T11:37:35;101000.00;;;26.80
15079;BMP180;6932;51.438;5.470;2023-07-16T11:40:07;101013.00;;;26.80
15079;BMP180;6932;51.438;5.470;2023-07-16T11:42:38;101024.00;;;26.80
15079;BMP180;6932;51.438;5.470;2023-07-16T11:45:15;101008.00;;;26.80
15079;BMP180;6932;51.438;5.470;2023-07-16T11:47:41;101017.00;;;26.80
15079;BMP180;6932;51.438;5.470;2023-07-16T11:50:08;101015.00;;;26.90
15079;BMP180;6932;51.438;5.470;2023-07-16T11:52:34;101015.00;;;26.90
15079;BMP180;6932;51.438;5.470;2023-07-16T11:54:59;101017.00;;;26.90
15079;BMP180;6932;51.438;5.470;2023-07-16T11:57:25;101010.00;;;27.00
15079;BMP180;6932;51.438;5.470;2023-07-16T11:59:51;101016.00;;;27.00
15079;BMP180;6932;51.438;5.470;2023-07-16T12:02:18;101021.00;;;27.00
15079;BMP180;6932;51.438;5.470;2023-07-16T12:04:44;101010.00;;;27.00
15079;BMP180;6932;51.438;5.470;2023-07-16T12:07:10;101034.00;;;27.00
15079;BMP180;6932;51.438;5.470;2023-07-16T12:09:35;101029.00;;;27.00
15079;BMP180;6932;51.438;5.470;2023-07-16T12:12:01;101020.00;;;27.10
15079;BMP180;6932;51.438;5.470;2023-07-16T12:14:28;101026.00;;;27.10
15079;BMP180;6932;51.438;5.470;2023-07-16T12:16:54;101028.00;;;27.10
15079;BMP180;6932;51.438;5.470;2023-07-16T12:19:20;101013.00;;;27.10
15079;BMP180;6932;51.438;5.470;2023-07-16T12:21:46;101018.00;;;27.20
15079;BMP180;6932;51.438;5.470;2023-07-16T12:24:12;101016.00;;;27.20
15079;BMP180;6932;51.438;5.470;2023-07-16T12:26:38;101023.00;;;27.20
15079;BMP180;6932;51.438;5.470;2023-07-16T12:29:04;101026.00;;;27.20
15079;BMP180;6932;51.438;5.470;2023-07-16T12:31:31;101036.00;;;27.20
15079;BMP180;6932;51.438;5.470;2023-07-16T12:33:58;101037.00;;;27.20
15079;BMP180;6932;51.438;5.470;2023-07-16T12:36:24;101047.00;;;27.20
15079;BMP180;6932;51.438;5.470;2023-07-16T12:38:50;101051.00;;;27.20
15079;BMP180;6932;51.438;5.470;2023-07-16T12:41:16;101044.00;;;27.20
15079;BMP180;6932;51.438;5.470;2023-07-16T12:43:42;101049.00;;;27.10
15079;BMP180;6932;51.438;5.470;2023-07-16T12:46:08;101056.00;;;27.10
15079;BMP180;6932;51.438;5.470;2023-07-16T12:48:34;101064.00;;;27.10
15079;BMP180;6932;51.438;5.470;2023-07-16T12:51:00;101064.00;;;27.10
15079;BMP180;6932;51.438;5.470;2023-07-16T12:53:26;101054.00;;;27.00
15079;BMP180;6932;51.438;5.470;2023-07-16T12:55:52;101048.00;;;27.10
15079;BMP180;6932;51.438;5.470;2023-07-16T12:58:18;101051.00;;;27.10
15079;BMP180;6932;51.438;5.470;2023-07-16T13:00:44;101050.00;;;27.10
15079;BMP180;6932;51.438;5.470;2023-07-16T13:03:10;101053.00;;;27.10
15079;BMP180;6932;51.438;5.470;2023-07-16T13:05:40;101054.00;;;27.20
15079;BMP180;6932;51.438;5.470;2023-07-16T13:08:06;101060.00;;;27.20
15079;BMP180;6932;51.438;5.470;2023-07-16T13:10:32;101051.00;;;27.20
15079;BMP180;6932;51.438;5.470;2023-07-16T13:12:58;101058.00;;;27.20
15079;BMP180;6932;51.438;5.470;2023-07-16T13:15:24;101058.00;;;27.20
15079;BMP180;6932;51.438;5.470;2023-07-16T13:17:50;101055.00;;;27.30
15079;BMP180;6932;51.438;5.470;2023-07-16T13:20:17;101045.00;;;27.30
15079;BMP180;6932;51.438;5.470;2023-07-16T13:22:43;101051.00;;;27.30
15079;BMP180;6932;51.438;5.470;2023-07-16T13:25:09;101046.00;;;27.40
15079;BMP180;6932;51.438;5.470;2023-07-16T13:27:35;101055.00;;;27.40
15079;BMP180;6932;51.438;5.470;2023-07-16T13:30:01;101047.00;;;27.50
15079;BMP180;6932;51.438;5.470;2023-07-16T13:32:26;101056.00;;;27.50
15079;BMP180;6932;51.438;5.470;2023-07-16T13:34:53;101050.00;;;27.50
15079;BMP180;6932;51.438;5.470;2023-07-16T13:37:19;101057.00;;;27.50
15079;BMP180;6932;51.438;5.470;2023-07-16T13:39:45;101063.00;;;27.60
15079;BMP180;6932;51.438;5.470;2023-07-16T13:42:10;101058.00;;;27.60
15079;BMP180;6932;51.438;5.470;2023-07-16T13:44:37;101060.00;;;27.60
15079;BMP180;6932;51.438;5.470;2023-07-16T13:47:03;101062.00;;;27.60
15079;BMP180;6932;51.438;5.470;2023-07-16T13:49:29;101060.00;;;27.60
15079;BMP180;6932;51.438;5.470;2023-07-16T13:51:55;101065.00;;;27.60
15079;BMP180;6932;51.438;5.470;2023-07-16T13:54:21;101069.00;;;27.60
15079;BMP180;6932;51.438;5.470;2023-07-16T13:56:48;101062.00;;;27.60
15079;BMP180;6932;51.438;5.470;2023-07-16T13:59:14;101056.00;;;27.60
15079;BMP180;6932;51.438;5.470;2023-07-16T14:01:41;101052.00;;;27.60
15079;BMP180;6932;51.438;5.470;2023-07-16T14:04:07;101053.00;;;27.60
15079;BMP180;6932;51.438;5.470;2023-07-16T14:06:33;101053.00;;;27.60
15079;BMP180;6932;51.438;5.470;2023-07-16T14:08:59;101051.00;;;27.60
15079;BMP180;6932;51.438;5.470;2023-07-16T14:11:25;101053.00;;;27.70
15079;BMP180;6932;51.438;5.470;2023-07-16T14:13:51;101055.00;;;27.70
15079;BMP180;6932;51.438;5.470;2023-07-16T14:16:19;101060.00;;;27.70